Eurocargo Venezia — IBKS — position and weather

sailwx.info

Track history (hours):
 
Tides and Currents Weather Stations Pressure Air Temp Water Temp Dewpoint Dewpoint Depression Visibility Wind Speed Wind Dir Waves Ship Positions

Eurocargo Venezia

Last reported at 2014-Dec-20 20:32 UTC. Time now 2014-Dec-21 16:33 UTC.
Position N 36°37' E 015°09'.

Length 200 m; draft 7.5 m.

Type: Cargo ship. MMSI: 247297200.

Date/timePositionNaut miles runAvg speedWind from/ knotsBaromVisibWave heightAir tempDewpointWater temp
2014-Dec-20 20:32N 36°37' E 015°09'100 3.7
2014-Dec-19 17:26N 38°14' E 015°37'16217.8
2014-Dec-19 08:20N 40°19' E 013°24'1618.2
2014-Dec-19 07:26N 40°32' E 013°11'19617.6
2014-Dec-18 20:20N 43°04' E 010°24'1417.9
2014-Dec-18 19:34N 43°17' E 010°17'1515.1
2014-Dec-18 18:34N 43°32' E 010°15'4 4.0
2014-Dec-18 17:33N 43°35' E 010°18'0 0.0
2014-Dec-18 16:33N 43°35' E 010°18'0 0.0
2014-Dec-18 15:33N 43°35' E 010°18'0 0.0
2014-Dec-18 14:33N 43°35' E 010°18'0 0.0
2014-Dec-18 13:33N 43°35' E 010°18'0 0.0
2014-Dec-18 12:30N 43°35' E 010°18'0 0.0
2014-Dec-18 11:33N 43°35' E 010°18'0 0.0
2014-Dec-18 10:33N 43°35' E 010°18'1 0.9
2014-Dec-18 09:33N 43°34' E 010°18'1110.8
2014-Dec-18 08:33N 43°30' E 010°04'1717.0
2014-Dec-18 07:33N 43°40' E 009°46'1717.2
2014-Dec-18 06:33N 43°53' E 009°29'1817.6
2014-Dec-18 05:33N 44°06' E 009°12'1716.9
2014-Dec-18 04:33N 44°19' E 008°58'6 6.2
2014-Dec-18 03:33N 44°24' E 008°53'0 0.0
2014-Dec-18 02:33N 44°24' E 008°53'0 0.0
2014-Dec-18 01:33N 44°24' E 008°53'0 0.0
2014-Dec-18 00:33N 44°24' E 008°53'0 0.0
2014-Dec-17 23:33N 44°24' E 008°53'0 0.0
2014-Dec-17 22:33N 44°24' E 008°53'0 0.0
2014-Dec-17 21:33N 44°24' E 008°53'0 0.0
2014-Dec-17 20:33N 44°24' E 008°53'3 3.1
2014-Dec-17 19:33N 44°23' E 008°57'1313.2
2014-Dec-17 18:33N 44°12' E 009°08'2020.1
2014-Dec-17 17:33N 43°57' E 009°26'2019.8
2014-Dec-17 16:32N 43°42' E 009°45'1919.4
2014-Dec-17 15:33N 43°28' E 010°03'2019.5
2014-Dec-17 14:33N 43°11' E 010°16'19019.0
2014-Dec-17 04:33N 40°58' E 013°19'1818.8
2014-Dec-17 03:33N 40°45' E 013°37'1818.4
2014-Dec-17 02:33N 40°30' E 013°51'  
2014-Dec-13 23:33N 43°05' E 009°59'1615.9
2014-Dec-13 22:34N 43°18' E 009°48'1615.8
2014-Dec-13 21:33N 43°32' E 009°38'1616.0
2014-Dec-13 20:34N 43°46' E 009°26'1616.0
2014-Dec-13 19:33N 43°60' E 009°15'1615.6
2014-Dec-13 18:34N 44°13' E 009°04'1312.9
2014-Dec-13 17:33N 44°24' E 008°54'1 0.9
2014-Dec-13 16:33N 44°24' E 008°53'0 0.0
2014-Dec-13 15:33N 44°24' E 008°53'0 0.0
2014-Dec-13 14:33N 44°24' E 008°53'0 0.0
2014-Dec-13 13:33N 44°24' E 008°53'0 0.0
2014-Dec-13 12:33N 44°24' E 008°53'0 0.0
2014-Dec-13 11:33N 44°24' E 008°53'0 0.0
2014-Dec-13 10:33N 44°24' E 008°53'0 0.0
2014-Dec-13 09:33N 44°24' E 008°53'0 0.0
2014-Dec-13 08:33N 44°24' E 008°53'0 0.0
2014-Dec-13 07:33N 44°24' E 008°53'0 0.0
2014-Dec-13 06:33N 44°24' E 008°53'0 0.0
2014-Dec-13 05:33N 44°24' E 008°53'0 0.0
2014-Dec-13 04:33N 44°24' E 008°53'0 0.0
2014-Dec-13 03:33N 44°24' E 008°53'0 0.0
2014-Dec-13 02:33N 44°24' E 008°53'0 0.0
2014-Dec-13 01:33N 44°24' E 008°53'0 0.0
2014-Dec-13 00:33N 44°24' E 008°53'0 0.0
2014-Dec-12 23:33N 44°24' E 008°53'0 0.0
2014-Dec-12 22:33N 44°24' E 008°53'0 0.0
2014-Dec-12 21:33N 44°24' E 008°53'0 0.0
2014-Dec-12 20:33N 44°24' E 008°53'0 0.0
2014-Dec-12 19:33N 44°24' E 008°53'0 0.0
2014-Dec-12 18:33N 44°24' E 008°53'0 0.0
2014-Dec-12 17:33N 44°24' E 008°53'0 0.0
2014-Dec-12 16:33N 44°24' E 008°53'0 0.0
2014-Dec-12 15:33N 44°24' E 008°53'0 0.0
2014-Dec-12 14:33N 44°24' E 008°53'0 0.0
2014-Dec-12 13:33N 44°24' E 008°53'0 0.0
2014-Dec-12 12:33N 44°24' E 008°53'0 0.0
2014-Dec-12 11:33N 44°24' E 008°53'0 0.0
2014-Dec-12 10:33N 44°24' E 008°53'0 0.0
2014-Dec-12 09:33N 44°24' E 008°53'0 0.0
2014-Dec-12 08:33N 44°24' E 008°53'0 0.0
2014-Dec-12 07:33N 44°24' E 008°53'0 0.0
2014-Dec-12 06:33N 44°24' E 008°53'0 0.0
2014-Dec-12 05:33N 44°24' E 008°53'0 0.0
2014-Dec-12 04:33N 44°24' E 008°53'0 0.0
2014-Dec-12 03:33N 44°24' E 008°53'0 0.0
2014-Dec-12 02:33N 44°24' E 008°53'0 0.0
2014-Dec-12 01:33N 44°24' E 008°53'0 0.0
2014-Dec-12 00:33N 44°24' E 008°53'0 0.0
2014-Dec-11 23:33N 44°24' E 008°53'0 0.0
2014-Dec-11 22:33N 44°24' E 008°53'5 4.9
2014-Dec-11 21:33N 44°21' E 008°59'1717.5
2014-Dec-11 20:34N 44°07' E 009°14'1817.6
2014-Dec-11 19:33N 43°54' E 009°29'1717.3
2014-Dec-11 18:34N 43°41' E 009°45'1716.7
2014-Dec-11 17:33N 43°31' E 010°03'1110.9
2014-Dec-11 16:33N 43°34' E 010°18'1 1.0
2014-Dec-11 15:33N 43°35' E 010°18'0 0.0
2014-Dec-11 14:30N 43°35' E 010°18'0 0.0
2014-Dec-11 13:33N 43°35' E 010°18'1 0.5
2014-Dec-11 12:33N 43°34' E 010°18'4 4.3
2014-Dec-11 11:33N 43°30' E 010°16'2 1.8
2014-Dec-11 10:32N 43°29' E 010°16'0 0.1
2014-Dec-11 09:32N 43°28' E 010°16'0 0.1
2014-Dec-11 08:32N 43°29' E 010°16'0 0.0
2014-Dec-11 07:32N 43°29' E 010°16'0 0.1
2014-Dec-11 06:33N 43°28' E 010°16'0 0.0
2014-Dec-11 05:33N 43°28' E 010°16'0 0.1
2014-Dec-11 04:33N 43°29' E 010°16'4 3.7
2014-Dec-11 03:34N 43°25' E 010°15'1716.8
2014-Dec-11 02:34N 43°09' E 010°22'  
Track history (hours):
 
Tides and Currents Weather Stations Pressure Air Temp Water Temp Dewpoint Dewpoint Depression Visibility Wind Speed Wind Dir Waves Ship Positions

Eurocargo Venezia

Last reported at 2014-Dec-20 20:32 UTC. Time now 2014-Dec-21 16:33 UTC.
Position N 36°37' E 015°09'.

Length 200 m; draft 7.5 m.

Type: Cargo ship. MMSI: 247297200.

Date/timePositionNaut miles runAvg speedWind from/ knotsBaromVisibWave heightAir tempDewpointWater temp
2014-Dec-20 20:32N 36°37' E 015°09'100 3.7
2014-Dec-19 17:26N 38°14' E 015°37'16217.8
2014-Dec-19 08:20N 40°19' E 013°24'1618.2
2014-Dec-19 07:26N 40°32' E 013°11'19617.6
2014-Dec-18 20:20N 43°04' E 010°24'1417.9
2014-Dec-18 19:34N 43°17' E 010°17'1515.1
2014-Dec-18 18:34N 43°32' E 010°15'4 4.0
2014-Dec-18 17:33N 43°35' E 010°18'0 0.0
2014-Dec-18 16:33N 43°35' E 010°18'0 0.0
2014-Dec-18 15:33N 43°35' E 010°18'0 0.0
2014-Dec-18 14:33N 43°35' E 010°18'0 0.0
2014-Dec-18 13:33N 43°35' E 010°18'0 0.0
2014-Dec-18 12:30N 43°35' E 010°18'0 0.0
2014-Dec-18 11:33N 43°35' E 010°18'0 0.0
2014-Dec-18 10:33N 43°35' E 010°18'1 0.9
2014-Dec-18 09:33N 43°34' E 010°18'1110.8
2014-Dec-18 08:33N 43°30' E 010°04'1717.0
2014-Dec-18 07:33N 43°40' E 009°46'1717.2
2014-Dec-18 06:33N 43°53' E 009°29'1817.6
2014-Dec-18 05:33N 44°06' E 009°12'1716.9
2014-Dec-18 04:33N 44°19' E 008°58'6 6.2
2014-Dec-18 03:33N 44°24' E 008°53'0 0.0
2014-Dec-18 02:33N 44°24' E 008°53'0 0.0
2014-Dec-18 01:33N 44°24' E 008°53'0 0.0
2014-Dec-18 00:33N 44°24' E 008°53'0 0.0
2014-Dec-17 23:33N 44°24' E 008°53'0 0.0
2014-Dec-17 22:33N 44°24' E 008°53'0 0.0
2014-Dec-17 21:33N 44°24' E 008°53'0 0.0
2014-Dec-17 20:33N 44°24' E 008°53'3 3.1
2014-Dec-17 19:33N 44°23' E 008°57'1313.2
2014-Dec-17 18:33N 44°12' E 009°08'2020.1
2014-Dec-17 17:33N 43°57' E 009°26'2019.8
2014-Dec-17 16:32N 43°42' E 009°45'1919.4
2014-Dec-17 15:33N 43°28' E 010°03'2019.5
2014-Dec-17 14:33N 43°11' E 010°16'19019.0
2014-Dec-17 04:33N 40°58' E 013°19'1818.8
2014-Dec-17 03:33N 40°45' E 013°37'1818.4
2014-Dec-17 02:33N 40°30' E 013°51'  
2014-Dec-13 23:33N 43°05' E 009°59'1615.9
2014-Dec-13 22:34N 43°18' E 009°48'1615.8
2014-Dec-13 21:33N 43°32' E 009°38'1616.0
2014-Dec-13 20:34N 43°46' E 009°26'1616.0
2014-Dec-13 19:33N 43°60' E 009°15'1615.6
2014-Dec-13 18:34N 44°13' E 009°04'1312.9
2014-Dec-13 17:33N 44°24' E 008°54'1 0.9
2014-Dec-13 16:33N 44°24' E 008°53'0 0.0
2014-Dec-13 15:33N 44°24' E 008°53'0 0.0
2014-Dec-13 14:33N 44°24' E 008°53'0 0.0
2014-Dec-13 13:33N 44°24' E 008°53'0 0.0
2014-Dec-13 12:33N 44°24' E 008°53'0 0.0
2014-Dec-13 11:33N 44°24' E 008°53'0 0.0
2014-Dec-13 10:33N 44°24' E 008°53'0 0.0
2014-Dec-13 09:33N 44°24' E 008°53'0 0.0
2014-Dec-13 08:33N 44°24' E 008°53'0 0.0
2014-Dec-13 07:33N 44°24' E 008°53'0 0.0
2014-Dec-13 06:33N 44°24' E 008°53'0 0.0
2014-Dec-13 05:33N 44°24' E 008°53'0 0.0
2014-Dec-13 04:33N 44°24' E 008°53'0 0.0
2014-Dec-13 03:33N 44°24' E 008°53'0 0.0
2014-Dec-13 02:33N 44°24' E 008°53'0 0.0
2014-Dec-13 01:33N 44°24' E 008°53'0 0.0
2014-Dec-13 00:33N 44°24' E 008°53'0 0.0
2014-Dec-12 23:33N 44°24' E 008°53'0 0.0
2014-Dec-12 22:33N 44°24' E 008°53'0 0.0
2014-Dec-12 21:33N 44°24' E 008°53'0 0.0
2014-Dec-12 20:33N 44°24' E 008°53'0 0.0
2014-Dec-12 19:33N 44°24' E 008°53'0 0.0
2014-Dec-12 18:33N 44°24' E 008°53'0 0.0
2014-Dec-12 17:33N 44°24' E 008°53'0 0.0
2014-Dec-12 16:33N 44°24' E 008°53'0 0.0
2014-Dec-12 15:33N 44°24' E 008°53'0 0.0
2014-Dec-12 14:33N 44°24' E 008°53'0 0.0
2014-Dec-12 13:33N 44°24' E 008°53'0 0.0
2014-Dec-12 12:33N 44°24' E 008°53'0 0.0
2014-Dec-12 11:33N 44°24' E 008°53'0 0.0
2014-Dec-12 10:33N 44°24' E 008°53'0 0.0
2014-Dec-12 09:33N 44°24' E 008°53'0 0.0
2014-Dec-12 08:33N 44°24' E 008°53'0 0.0
2014-Dec-12 07:33N 44°24' E 008°53'0 0.0
2014-Dec-12 06:33N 44°24' E 008°53'0 0.0
2014-Dec-12 05:33N 44°24' E 008°53'0 0.0
2014-Dec-12 04:33N 44°24' E 008°53'0 0.0
2014-Dec-12 03:33N 44°24' E 008°53'0 0.0
2014-Dec-12 02:33N 44°24' E 008°53'0 0.0
2014-Dec-12 01:33N 44°24' E 008°53'0 0.0
2014-Dec-12 00:33N 44°24' E 008°53'0 0.0
2014-Dec-11 23:33N 44°24' E 008°53'0 0.0
2014-Dec-11 22:33N 44°24' E 008°53'5 4.9
2014-Dec-11 21:33N 44°21' E 008°59'1717.5
2014-Dec-11 20:34N 44°07' E 009°14'1817.6
2014-Dec-11 19:33N 43°54' E 009°29'1717.3
2014-Dec-11 18:34N 43°41' E 009°45'1716.7
2014-Dec-11 17:33N 43°31' E 010°03'1110.9
2014-Dec-11 16:33N 43°34' E 010°18'1 1.0
2014-Dec-11 15:33N 43°35' E 010°18'0 0.0
2014-Dec-11 14:30N 43°35' E 010°18'0 0.0
2014-Dec-11 13:33N 43°35' E 010°18'1 0.5
2014-Dec-11 12:33N 43°34' E 010°18'4 4.3
2014-Dec-11 11:33N 43°30' E 010°16'2 1.8
2014-Dec-11 10:32N 43°29' E 010°16'0 0.1
2014-Dec-11 09:32N 43°28' E 010°16'0 0.1
2014-Dec-11 08:32N 43°29' E 010°16'0 0.0
2014-Dec-11 07:32N 43°29' E 010°16'0 0.1
2014-Dec-11 06:33N 43°28' E 010°16'0 0.0
2014-Dec-11 05:33N 43°28' E 010°16'0 0.1
2014-Dec-11 04:33N 43°29' E 010°16'4 3.7
2014-Dec-11 03:34N 43°25' E 010°15'1716.8
2014-Dec-11 02:34N 43°09' E 010°22'  

Dump ship's entire track history